Time;durP1;ratioP1;P1;durP2;ratioP2;P2;SDS_P1;SDS_P2;PMS_P1;PMS_P2;Temp;Humidity;BMP_temperature;BMP_pressure;BME280_temperature;BME280_humidity;BME280_pressure;Samples;Min_cycle;Max_cycle;Signal;HPM_P1;HPM_P2
2023/09/21 00:00:49;;;;;;;5.03;1.70;;;17.80;99.90;;;;;;5065544;28;20123;-69
2023/09/21 00:03:15;;;;;;;6.90;2.08;;;17.80;99.90;;;;;;5065562;28;20049;-69
2023/09/21 00:05:45;;;;;;;7.03;2.55;;;17.80;99.90;;;;;;5060492;28;20041;-69
2023/09/21 00:08:12;;;;;;;7.43;1.92;;;17.80;99.90;;;;;;5076572;28;20079;-69
2023/09/21 00:10:39;;;;;;;6.72;2.03;;;17.80;99.90;;;;;;5065811;28;20071;-69
2023/09/21 00:13:05;;;;;;;5.70;2.03;;;17.80;99.90;;;;;;5065526;28;20048;-70
2023/09/21 00:15:31;;;;;;;8.73;1.95;;;17.80;99.90;;;;;;5065289;28;20044;-70
2023/09/21 00:17:58;;;;;;;5.10;2.00;;;17.90;99.90;;;;;;5048688;28;20064;-69
2023/09/21 00:20:28;;;;;;;4.45;1.60;;;17.90;99.90;;;;;;5066202;28;20056;-69
2023/09/21 00:22:54;;;;;;;4.95;1.70;;;17.90;99.90;;;;;;5052114;28;20044;-70
2023/09/21 00:25:27;;;;;;;5.97;2.03;;;17.90;99.90;;;;;;5068597;28;20094;-69
2023/09/21 00:27:53;;;;;;;6.95;2.05;;;17.90;99.90;;;;;;5067017;28;20048;-69
2023/09/21 00:30:19;;;;;;;5.95;2.08;;;18.00;99.90;;;;;;5068708;28;20064;-69
2023/09/21 00:32:47;;;;;;;11.38;2.33;;;18.00;99.90;;;;;;5052262;28;20071;-70
2023/09/21 00:35:16;;;;;;;9.43;2.30;;;17.90;99.90;;;;;;5068496;28;20054;-70
2023/09/21 00:37:46;;;;;;;6.78;1.70;;;18.00;99.90;;;;;;5069874;28;20528;-70
2023/09/21 00:40:18;;;;;;;7.35;2.40;;;18.00;99.90;;;;;;5052538;28;20048;-70
2023/09/21 00:42:45;;;;;;;5.00;1.63;;;18.00;99.90;;;;;;5069160;28;20048;-71
2023/09/21 00:45:12;;;;;;;5.05;1.90;;;18.00;99.90;;;;;;5068586;28;20056;-70
2023/09/21 00:47:39;;;;;;;5.22;1.73;;;18.10;99.90;;;;;;5052215;28;20053;-70
2023/09/21 00:50:12;;;;;;;8.38;1.98;;;18.10;99.90;;;;;;5054196;28;20048;-70
2023/09/21 00:52:44;;;;;;;6.88;1.77;;;18.10;99.90;;;;;;5065707;28;20044;-70
2023/09/21 00:55:11;;;;;;;5.22;1.80;;;18.10;99.90;;;;;;5065253;28;20162;-70
2023/09/21 00:57:40;;;;;;;6.63;2.30;;;18.10;99.90;;;;;;5047279;28;20052;-70
2023/09/21 01:00:13;;;;;;;5.28;2.08;;;18.10;99.90;;;;;;5048084;28;20040;-71
2023/09/21 01:02:43;;;;;;;4.05;1.48;;;18.10;99.90;;;;;;5061951;28;20044;-71
2023/09/21 01:05:12;;;;;;;6.00;1.70;;;18.10;99.90;;;;;;5080471;28;20829;-72
2023/09/21 01:07:39;;;;;;;9.07;1.80;;;18.20;99.90;;;;;;5048697;28;20558;-71
2023/09/21 01:10:07;;;;;;;5.35;1.85;;;18.20;99.90;;;;;;5065003;28;20048;-72
2023/09/21 01:12:35;;;;;;;4.50;1.70;;;18.20;99.90;;;;;;5066092;28;20056;-70
2023/09/21 01:15:11;;;;;;;5.25;1.85;;;18.20;99.90;;;;;;5048617;28;20056;-71
2023/09/21 01:17:41;;;;;;;5.07;1.70;;;18.20;99.90;;;;;;5063791;28;20059;-71
2023/09/21 01:20:19;;;;;;;6.78;2.15;;;18.20;99.90;;;;;;5064892;28;20403;-72
2023/09/21 01:22:49;;;;;;;5.63;1.90;;;18.20;99.90;;;;;;5095776;28;20048;-72
2023/09/21 01:25:15;;;;;;;6.53;1.80;;;18.20;99.90;;;;;;5064647;28;20556;-71
2023/09/21 01:27:42;;;;;;;4.75;2.17;;;18.20;99.90;;;;;;5047339;28;20086;-71
2023/09/21 01:30:12;;;;;;;8.57;2.05;;;18.20;99.90;;;;;;5047075;28;20045;-70
2023/09/21 01:32:40;;;;;;;6.88;2.20;;;18.20;99.90;;;;;;5063770;28;20040;-70
2023/09/21 01:35:07;;;;;;;6.03;1.83;;;18.20;99.90;;;;;;5062644;28;20043;-70
2023/09/21 01:37:35;;;;;;;6.93;1.88;;;18.20;99.90;;;;;;5063734;28;20058;-70
2023/09/21 01:40:37;;;;;;;6.88;2.10;;;18.30;99.90;;;;;;5047438;28;20040;-70
2023/09/21 01:42:56;;;;;;;6.10;2.03;;;18.30;99.90;;;;;;5061420;28;20048;-71
2023/09/21 01:45:21;;;;;;;8.77;2.63;;;18.30;99.90;;;;;;5063340;28;20142;-71
2023/09/21 01:47:47;;;;;;;5.82;1.95;;;18.30;99.90;;;;;;5062956;28;20056;-71
2023/09/21 01:50:15;;;;;;;6.68;1.80;;;18.30;99.90;;;;;;5064148;28;20486;-72
2023/09/21 01:52:42;;;;;;;4.60;1.60;;;18.30;99.90;;;;;;5064167;28;20059;-71
2023/09/21 01:55:10;;;;;;;7.03;2.05;;;18.30;99.90;;;;;;5047611;28;20040;-70
2023/09/21 01:57:43;;;;;;;7.45;2.10;;;18.30;99.90;;;;;;5047909;28;20049;-70
2023/09/21 02:00:25;;;;;;;6.50;2.08;;;18.30;99.90;;;;;;5063091;28;20052;-71
2023/09/21 02:02:54;;;;;;;5.68;2.00;;;18.40;99.90;;;;;;5047058;28;20051;-70
2023/09/21 02:05:20;;;;;;;10.48;2.15;;;18.30;99.90;;;;;;5064949;28;20064;-70
2023/09/21 02:07:47;;;;;;;4.13;1.88;;;18.40;99.90;;;;;;5078154;28;20505;-71
2023/09/21 02:10:17;;;;;;;6.88;2.08;;;18.30;99.90;;;;;;5062696;28;20128;-71
2023/09/21 02:13:00;;;;;;;5.00;1.75;;;18.40;99.90;;;;;;5063543;28;20144;-70
2023/09/21 02:15:26;;;;;;;7.22;1.85;;;18.30;99.90;;;;;;5065709;28;20081;-70
2023/09/21 02:17:56;;;;;;;4.53;1.70;;;18.30;99.90;;;;;;5064949;28;20051;-70
2023/09/21 02:20:26;;;;;;;7.43;2.22;;;18.40;99.90;;;;;;5049798;28;20143;-70
2023/09/21 02:22:53;;;;;;;7.07;2.40;;;18.40;99.90;;;;;;5065872;28;20048;-71
2023/09/21 02:25:19;;;;;;;5.03;1.70;;;18.40;99.90;;;;;;5066041;28;20600;-71
2023/09/21 02:27:47;;;;;;;5.90;2.10;;;18.40;99.90;;;;;;5049166;28;20055;-71
2023/09/21 02:30:23;;;;;;;6.68;1.88;;;18.40;99.90;;;;;;5063556;28;20131;-70
2023/09/21 02:32:54;;;;;;;6.72;1.92;;;18.40;99.90;;;;;;5079762;28;20084;-70
2023/09/21 02:35:27;;;;;;;6.22;2.05;;;18.40;99.90;;;;;;5065698;28;20727;-70
2023/09/21 02:37:57;;;;;;;7.38;1.95;;;18.40;99.90;;;;;;5066424;28;20060;-70
2023/09/21 02:40:24;;;;;;;8.48;2.13;;;18.40;99.90;;;;;;5092125;28;20060;-69
2023/09/21 02:42:52;;;;;;;5.60;1.90;;;18.40;99.90;;;;;;5066651;28;20652;-69
2023/09/21 02:45:20;;;;;;;7.68;2.10;;;18.40;99.90;;;;;;5067248;28;20079;-69
2023/09/21 02:47:47;;;;;;;5.22;1.83;;;18.40;99.90;;;;;;5048444;28;20067;-70
2023/09/21 02:50:14;;;;;;;5.05;2.10;;;18.40;99.90;;;;;;5065027;28;20594;-70
2023/09/21 02:52:51;;;;;;;6.32;2.00;;;18.40;99.90;;;;;;5066259;28;20076;-70
2023/09/21 02:55:20;;;;;;;4.85;2.03;;;18.40;99.90;;;;;;5066253;28;20052;-70
2023/09/21 02:57:58;;;;;;;5.45;1.80;;;18.40;99.90;;;;;;5066396;28;20048;-71
2023/09/21 03:00:29;;;;;;;6.97;2.10;;;18.40;99.90;;;;;;5066084;28;20071;-70
2023/09/21 03:03:00;;;;;;;7.30;2.10;;;18.40;99.90;;;;;;5065790;28;20413;-69
2023/09/21 03:05:27;;;;;;;;;;;18.40;99.90;;;;;;5066742;28;20056;-70
2023/09/21 03:07:54;;;;;;;5.07;1.80;;;18.40;99.90;;;;;;5066479;28;19925;-70
2023/09/21 03:10:22;;;;;;;8.55;2.22;;;18.40;99.90;;;;;;5066047;28;20582;-70
2023/09/21 03:12:48;;;;;;;6.13;2.30;;;18.40;99.90;;;;;;5065156;28;20044;-70
2023/09/21 03:15:16;;;;;;;5.72;1.98;;;18.50;99.90;;;;;;5099350;28;20517;-69
2023/09/21 03:17:44;;;;;;;5.82;2.15;;;18.50;99.90;;;;;;5064782;28;20048;-69
2023/09/21 03:20:36;;;;;;;6.82;2.00;;;18.50;99.90;;;;;;5056621;28;20033;-70
2023/09/21 03:23:09;;;;;;;8.30;2.75;;;18.50;99.90;;;;;;5073329;28;20051;-70
2023/09/21 03:25:53;;;;;;;6.20;1.85;;;18.50;99.90;;;;;;5065784;28;20092;-70
2023/09/21 03:28:22;;;;;;;6.00;1.70;;;18.50;99.90;;;;;;5064857;28;20597;-70
2023/09/21 03:30:53;;;;;;;8.07;2.15;;;18.50;99.90;;;;;;5046695;28;20057;-70
2023/09/21 03:33:20;;;;;;;6.47;1.98;;;18.50;99.90;;;;;;5058440;28;20136;-70
2023/09/21 03:35:46;;;;;;;4.43;1.60;;;18.50;99.90;;;;;;5064546;28;20056;-70
2023/09/21 03:38:13;;;;;;;5.07;1.70;;;18.50;99.90;;;;;;5048569;28;20131;-69
2023/09/21 03:40:39;;;;;;;7.13;2.00;;;18.50;99.90;;;;;;5048565;28;20127;-69
2023/09/21 03:43:07;;;;;;;6.53;1.77;;;18.50;99.90;;;;;;5065170;28;20082;-69
2023/09/21 03:45:33;;;;;;;5.43;1.95;;;18.50;99.90;;;;;;5059613;28;20235;-70
2023/09/21 03:48:01;;;;;;;5.10;1.63;;;18.50;99.90;;;;;;5047556;28;20400;-70
2023/09/21 03:50:27;;;;;;;5.63;1.95;;;18.50;99.90;;;;;;5066058;28;20382;-69
2023/09/21 03:52:54;;;;;;;5.60;2.03;;;18.50;99.90;;;;;;5065319;28;20540;-70
2023/09/21 03:55:20;;;;;;;6.22;2.10;;;18.50;99.90;;;;;;5065092;28;20243;-69
2023/09/21 03:57:47;;;;;;;8.57;2.05;;;18.60;99.90;;;;;;5071216;28;20053;-70
2023/09/21 04:02:49;;;;;;;7.07;1.60;;;18.60;99.90;;;;;;5069902;28;20421;-70
2023/09/21 04:05:18;;;;;;;6.60;2.22;;;18.60;99.90;;;;;;5072130;28;20052;-69
2023/09/21 04:07:48;;;;;;;4.53;1.85;;;18.60;99.90;;;;;;5072004;28;20056;-69
2023/09/21 04:10:15;;;;;;;6.05;1.90;;;18.60;99.90;;;;;;5058729;28;20402;-69
2023/09/21 04:12:42;;;;;;;6.60;2.08;;;18.50;99.90;;;;;;5048720;28;20043;-70
2023/09/21 04:15:08;;;;;;;5.93;2.10;;;18.50;99.90;;;;;;5055347;28;20048;-69
2023/09/21 04:17:35;;;;;;;7.93;1.90;;;18.60;99.90;;;;;;5054230;28;20059;-69
2023/09/21 04:20:10;;;;;;;4.85;2.03;;;18.50;99.90;;;;;;5071947;28;20639;-70
2023/09/21 04:22:37;;;;;;;5.95;1.90;;;18.50;99.90;;;;;;5055412;28;20044;-70
2023/09/21 04:25:09;;;;;;;8.90;2.10;;;18.50;99.90;;;;;;5055641;28;20439;-69
2023/09/21 04:27:36;;;;;;;6.70;1.83;;;18.50;99.90;;;;;;5072698;28;20048;-69
2023/09/21 04:30:03;;;;;;;7.22;1.90;;;18.50;99.90;;;;;;5071936;28;20052;-69
2023/09/21 04:32:29;;;;;;;5.90;1.73;;;18.40;99.90;;;;;;5071246;28;20119;-69
2023/09/21 04:34:55;;;;;;;5.07;1.80;;;18.50;99.90;;;;;;5072267;28;20584;-69
2023/09/21 04:37:20;;;;;;;5.75;1.83;;;18.40;99.90;;;;;;5071826;28;20052;-70
2023/09/21 04:39:47;;;;;;;4.90;1.63;;;18.40;99.90;;;;;;5071456;28;20063;-70
2023/09/21 04:42:16;;;;;;;4.38;1.67;;;18.40;99.90;;;;;;5051990;28;20060;-69
2023/09/21 04:44:43;;;;;;;6.03;1.85;;;18.40;99.90;;;;;;5071367;28;20049;-70
2023/09/21 04:47:08;;;;;;;5.15;2.13;;;18.40;99.90;;;;;;5073360;28;20048;-69
2023/09/21 04:49:37;;;;;;;7.43;2.10;;;18.40;99.90;;;;;;5071034;28;20067;-69
2023/09/21 04:52:04;;;;;;;6.18;1.77;;;18.30;99.90;;;;;;5068663;28;20036;-69
2023/09/21 04:54:30;;;;;;;5.20;1.65;;;18.30;99.90;;;;;;5065684;28;20584;-69
2023/09/21 04:56:56;;;;;;;5.60;1.90;;;18.30;99.90;;;;;;5055704;28;20123;-70
2023/09/21 04:59:23;;;;;;;7.03;1.70;;;18.40;99.90;;;;;;5049121;28;20402;-70
2023/09/21 05:01:48;;;;;;;7.47;2.17;;;18.30;99.90;;;;;;5061757;28;20126;-66
2023/09/21 05:04:14;;;;;;;5.25;1.67;;;18.30;99.90;;;;;;5051554;28;20044;-66
2023/09/21 05:06:41;;;;;;;4.63;1.60;;;18.30;99.90;;;;;;5085130;28;20430;-66
2023/09/21 05:09:07;;;;;;;5.50;2.00;;;18.20;99.90;;;;;;5085597;28;20047;-69
2023/09/21 05:11:38;;;;;;;5.07;1.90;;;18.30;99.90;;;;;;5038311;28;20036;-69
2023/09/21 05:14:08;;;;;;;6.13;1.60;;;18.30;99.90;;;;;;5035069;28;20053;-70
2023/09/21 05:16:37;;;;;;;6.32;2.10;;;18.20;99.90;;;;;;5049410;28;20702;-69
2023/09/21 05:19:05;;;;;;;5.47;1.90;;;18.20;99.90;;;;;;5028187;28;20127;-69
2023/09/21 05:21:30;;;;;;;6.90;2.17;;;18.20;99.90;;;;;;5062997;28;20109;-69
2023/09/21 05:23:56;;;;;;;5.28;1.80;;;18.20;99.90;;;;;;5045890;28;20078;-69
2023/09/21 05:26:22;;;;;;;5.72;1.77;;;18.20;99.90;;;;;;5028706;28;20561;-69
2023/09/21 05:28:49;;;;;;;4.55;1.77;;;18.20;99.90;;;;;;5042357;28;20062;-69
2023/09/21 05:31:14;;;;;;;5.97;1.80;;;18.20;99.90;;;;;;5026542;28;20525;-70
2023/09/21 05:33:40;;;;;;;5.07;1.67;;;18.20;99.90;;;;;;5044505;28;20123;-69
2023/09/21 05:36:06;;;;;;;5.78;1.88;;;18.20;99.90;;;;;;5043198;28;20124;-70
2023/09/21 05:38:32;;;;;;;4.68;1.75;;;18.20;99.90;;;;;;5035827;28;20055;-69
2023/09/21 05:41:03;;;;;;;6.80;2.00;;;18.10;99.90;;;;;;5047575;28;20421;-69
2023/09/21 05:43:29;;;;;;;4.53;1.95;;;18.20;99.90;;;;;;5041256;28;20615;-69
2023/09/21 05:45:56;;;;;;;6.07;1.75;;;18.20;99.90;;;;;;5048660;28;20862;-69
2023/09/21 05:48:22;;;;;;;4.25;1.70;;;18.10;99.90;;;;;;5083247;28;20601;-69
2023/09/21 05:50:47;;;;;;;7.18;2.17;;;18.10;99.90;;;;;;5041979;28;20051;-69
2023/09/21 05:53:13;;;;;;;5.65;1.75;;;18.10;99.90;;;;;;5051117;28;20757;-70
2023/09/21 05:55:40;;;;;;;9.68;2.00;;;18.20;99.90;;;;;;5059869;28;20709;-69
2023/09/21 05:58:07;;;;;;;3.92;1.85;;;18.10;99.90;;;;;;5043344;28;20674;-70
2023/09/21 06:00:33;;;;;;;4.40;1.70;;;18.10;99.90;;;;;;5058264;28;20046;-69
2023/09/21 06:03:02;;;;;;;5.15;1.88;;;18.10;99.90;;;;;;5054878;28;20053;-69
2023/09/21 06:05:29;;;;;;;6.40;1.90;;;18.10;99.90;;;;;;5061818;28;20564;-70
2023/09/21 06:07:56;;;;;;;4.47;1.67;;;18.10;99.90;;;;;;5064718;28;20585;-70
2023/09/21 06:10:30;;;;;;;6.75;1.90;;;18.10;99.90;;;;;;5041961;28;20412;-69
2023/09/21 06:12:56;;;;;;;6.00;1.73;;;18.10;99.90;;;;;;5044701;28;20427;-70
2023/09/21 06:15:22;;;;;;;4.40;1.90;;;18.10;99.90;;;;;;5057137;28;20045;-69
2023/09/21 06:17:48;;;;;;;4.60;1.73;;;18.10;99.90;;;;;;5058300;28;20059;-69
2023/09/21 06:20:14;;;;;;;9.20;2.10;;;18.10;99.90;;;;;;5057654;28;20063;-68
2023/09/21 06:22:41;;;;;;;6.68;2.10;;;18.10;99.90;;;;;;5065147;28;20144;-69
2023/09/21 06:25:07;;;;;;;4.53;1.77;;;18.00;99.90;;;;;;5043855;28;20062;-69
2023/09/21 06:27:37;;;;;;;4.80;1.63;;;18.00;99.90;;;;;;5088751;28;20083;-69
2023/09/21 06:30:04;;;;;;;6.13;2.00;;;18.00;99.90;;;;;;5065264;28;20704;-69
2023/09/21 06:32:29;;;;;;;6.25;2.10;;;17.90;99.90;;;;;;5061115;28;20546;-69
2023/09/21 06:34:56;;;;;;;5.90;1.80;;;18.00;99.90;;;;;;5039325;28;20052;-69
2023/09/21 06:37:22;;;;;;;9.07;2.25;;;17.90;99.90;;;;;;5082187;28;20465;-69
2023/09/21 06:39:48;;;;;;;6.57;1.70;;;17.90;99.90;;;;;;5057346;28;20994;-69
2023/09/21 06:42:17;;;;;;;8.57;2.05;;;17.90;99.90;;;;;;5034989;28;20048;-70
2023/09/21 06:44:46;;;;;;;7.78;2.60;;;17.90;99.90;;;;;;5057905;28;20561;-69
2023/09/21 06:47:16;;;;;;;5.97;2.10;;;17.80;99.90;;;;;;5065397;28;20528;-69
2023/09/21 06:49:45;;;;;;;5.85;2.10;;;17.90;99.90;;;;;;5047926;28;20052;-69
2023/09/21 06:52:11;;;;;;;6.18;1.90;;;17.80;99.90;;;;;;5043993;28;20618;-69
2023/09/21 06:54:38;;;;;;;6.43;2.22;;;17.80;99.90;;;;;;5051606;28;20049;-69
2023/09/21 06:57:04;;;;;;;6.03;2.20;;;17.80;99.90;;;;;;5038323;28;20776;-69
2023/09/21 06:59:34;;;;;;;8.23;2.53;;;17.80;99.90;;;;;;5038264;28;20056;-69
2023/09/21 07:02:00;;;;;;;5.30;1.90;;;17.80;99.90;;;;;;5063853;28;20093;-69
2023/09/21 07:04:28;;;;;;;6.55;2.20;;;17.80;99.90;;;;;;5057273;28;20550;-68
2023/09/21 07:06:54;;;;;;;4.82;2.25;;;17.80;99.90;;;;;;5034489;28;20052;-69
2023/09/21 07:09:20;;;;;;;6.82;2.25;;;17.80;99.90;;;;;;5055694;28;20049;-69
2023/09/21 07:11:46;;;;;;;4.88;2.00;;;17.70;99.90;;;;;;5061176;28;20102;-69
2023/09/21 07:14:13;;;;;;;7.32;2.10;;;17.70;99.90;;;;;;5042705;28;20076;-69
2023/09/21 07:16:39;;;;;;;4.18;1.95;;;17.70;99.90;;;;;;5046263;28;20056;-69
2023/09/21 07:19:05;;;;;;;7.18;2.15;;;17.70;99.90;;;;;;5037879;28;20476;-69
2023/09/21 07:21:31;;;;;;;5.85;2.17;;;17.70;99.90;;;;;;5044206;28;20055;-69
2023/09/21 07:23:57;;;;;;;6.38;2.08;;;17.60;99.90;;;;;;5066800;28;20829;-69
2023/09/21 07:26:23;;;;;;;5.55;2.33;;;17.60;99.90;;;;;;5065763;28;20063;-69
2023/09/21 07:28:48;;;;;;;4.32;1.83;;;17.70;99.90;;;;;;5047918;28;20108;-69
2023/09/21 07:31:14;;;;;;;5.20;1.92;;;17.60;99.90;;;;;;5046238;28;20457;-69
2023/09/21 07:33:40;;;;;;;6.72;2.22;;;17.60;99.90;;;;;;5047056;28;20317;-69
2023/09/21 07:36:06;;;;;;;7.15;2.22;;;17.60;99.90;;;;;;5058975;28;20060;-69
2023/09/21 07:38:32;;;;;;;5.95;2.42;;;17.60;99.90;;;;;;5055201;28;20102;-68
2023/09/21 07:40:57;;;;;;;7.97;2.17;;;17.60;99.90;;;;;;5065015;28;20056;-68
2023/09/21 07:43:23;;;;;;;5.97;2.20;;;17.60;99.90;;;;;;5093857;28;20063;-69
2023/09/21 07:45:50;;;;;;;5.43;2.38;;;17.60;99.90;;;;;;5054244;28;20053;-69
2023/09/21 07:48:16;;;;;;;8.13;2.58;;;17.60;99.90;;;;;;5061421;28;20044;-68
2023/09/21 07:50:43;;;;;;;6.70;2.60;;;17.60;99.90;;;;;;5059554;28;20050;-68
2023/09/21 07:53:09;;;;;;;9.43;2.75;;;17.60;99.90;;;;;;5048167;28;20040;-68
2023/09/21 07:55:35;;;;;;;6.25;2.20;;;17.60;99.90;;;;;;5062568;28;20060;-68
2023/09/21 07:58:01;;;;;;;5.60;2.47;;;17.60;99.90;;;;;;5035420;28;20064;-68
2023/09/21 08:00:27;;;;;;;7.45;2.45;;;17.60;99.90;;;;;;5086287;28;20059;-69
2023/09/21 08:02:53;;;;;;;6.60;2.40;;;17.60;99.90;;;;;;5038687;28;20497;-68
2023/09/21 08:05:19;;;;;;;6.43;2.70;;;17.60;99.90;;;;;;5039181;28;20045;-69
2023/09/21 08:07:45;;;;;;;6.32;2.55;;;17.60;99.90;;;;;;5040825;28;20059;-69
2023/09/21 08:10:11;;;;;;;7.82;2.25;;;17.60;99.90;;;;;;5045410;28;20044;-69
2023/09/21 08:12:40;;;;;;;5.40;2.45;;;17.60;99.90;;;;;;5032297;28;20159;-68
2023/09/21 08:15:06;;;;;;;6.82;2.63;;;17.50;99.90;;;;;;5062462;28;20505;-68
2023/09/21 08:17:33;;;;;;;6.65;2.70;;;17.50;99.90;;;;;;5063920;28;20566;-68
2023/09/21 08:19:59;;;;;;;6.22;2.58;;;17.50;99.90;;;;;;5035012;28;20037;-68
2023/09/21 08:22:28;;;;;;;8.02;2.78;;;17.40;99.90;;;;;;5034287;28;20049;-68
2023/09/21 08:24:54;;;;;;;6.53;2.42;;;17.40;99.90;;;;;;5045461;28;20053;-69
2023/09/21 08:27:22;;;;;;;8.85;2.30;;;17.50;99.90;;;;;;5092365;28;20467;-69
2023/09/21 08:29:49;;;;;;;7.30;2.55;;;17.40;99.90;;;;;;5060357;28;20088;-68
2023/09/21 08:32:15;;;;;;;5.43;2.58;;;17.40;99.90;;;;;;5043182;28;20120;-68
2023/09/21 08:34:44;;;;;;;5.10;2.70;;;17.40;99.90;;;;;;5047038;28;20741;-69
2023/09/21 08:37:10;;;;;;;5.50;1.80;;;17.40;99.90;;;;;;5064223;28;20531;-68
2023/09/21 08:39:36;;;;;;;2.67;1.02;;;17.30;99.90;;;;;;5047007;28;20080;-68
2023/09/21 08:42:03;;;;;;;3.53;1.35;;;17.30;99.90;;;;;;5045868;28;20087;-68
2023/09/21 08:44:30;;;;;;;4.28;1.20;;;17.30;99.90;;;;;;5065412;28;20048;-68
2023/09/21 08:46:56;;;;;;;4.68;2.08;;;17.30;99.90;;;;;;5064983;28;20044;-69
2023/09/21 08:49:23;;;;;;;3.53;1.00;;;17.30;99.90;;;;;;5063653;28;20060;-69
2023/09/21 08:51:52;;;;;;;2.42;1.10;;;17.30;99.90;;;;;;5048611;28;20053;-70
2023/09/21 08:54:19;;;;;;;3.25;1.02;;;17.30;99.90;;;;;;5049264;28;21841;-70
2023/09/21 08:56:48;;;;;;;3.53;1.00;;;17.20;99.90;;;;;;5049499;28;20049;-69
2023/09/21 08:59:19;;;;;;;1.77;0.75;;;17.20;99.90;;;;;;5081248;28;20059;-70
2023/09/21 09:01:46;;;;;;;2.85;0.90;;;17.20;99.90;;;;;;5034081;28;20044;-70
2023/09/21 09:04:14;;;;;;;3.10;0.80;;;17.20;99.90;;;;;;5055482;28;20067;-70
2023/09/21 09:06:39;;;;;;;2.95;0.80;;;17.10;99.90;;;;;;5047524;28;20045;-70
2023/09/21 09:09:06;;;;;;;3.03;0.80;;;17.10;99.90;;;;;;5053260;28;20112;-70
2023/09/21 09:11:38;;;;;;;3.33;1.02;;;17.10;99.90;;;;;;5054324;28;20117;-70
2023/09/21 09:14:10;;;;;;;2.78;0.90;;;17.10;99.90;;;;;;5052272;28;20049;-69
2023/09/21 09:16:36;;;;;;;3.80;0.93;;;17.00;99.90;;;;;;5051316;28;20059;-69
2023/09/21 09:19:05;;;;;;;2.33;1.23;;;17.00;99.90;;;;;;5038810;28;20049;-69
2023/09/21 09:21:31;;;;;;;4.47;0.80;;;16.90;99.90;;;;;;5052091;28;20045;-70
2023/09/21 09:23:58;;;;;;;2.90;0.70;;;16.90;99.90;;;;;;5037193;28;20060;-70
2023/09/21 09:26:23;;;;;;;2.42;0.80;;;16.90;99.90;;;;;;5053422;28;20086;-69
2023/09/21 09:28:49;;;;;;;3.35;0.90;;;16.90;99.90;;;;;;5056399;28;20048;-70
2023/09/21 09:31:17;;;;;;;3.92;1.00;;;16.80;99.90;;;;;;5054659;28;20063;-69
2023/09/21 09:33:49;;;;;;;2.17;0.95;;;16.80;99.90;;;;;;5038089;28;20041;-71
2023/09/21 09:36:14;;;;;;;4.45;1.00;;;16.80;99.90;;;;;;5052451;28;20113;-70
2023/09/21 09:38:41;;;;;;;3.70;1.10;;;16.80;99.90;;;;;;5053091;28;20045;-70
2023/09/21 09:41:12;;;;;;;3.90;1.23;;;16.80;99.90;;;;;;5035884;28;20486;-70
2023/09/21 09:43:39;;;;;;;2.63;0.80;;;16.80;99.90;;;;;;5046404;28;20436;-70
2023/09/21 09:46:08;;;;;;;2.85;0.82;;;16.80;99.90;;;;;;5031700;28;20068;-70
2023/09/21 09:48:37;;;;;;;3.50;1.02;;;16.70;99.90;;;;;;5083918;28;20044;-69
2023/09/21 09:51:06;;;;;;;3.42;1.00;;;16.70;99.90;;;;;;5036014;28;20099;-70
2023/09/21 09:53:34;;;;;;;3.08;0.90;;;16.70;99.90;;;;;;5053436;28;20048;-70
2023/09/21 09:56:08;;;;;;;3.72;0.93;;;16.70;99.90;;;;;;5051473;28;20132;-70
2023/09/21 09:58:40;;;;;;;2.80;0.80;;;16.60;99.90;;;;;;5051980;28;20052;-70
2023/09/21 10:01:08;;;;;;;2.03;0.80;;;16.60;99.90;;;;;;5048415;28;20048;-70
2023/09/21 10:03:38;;;;;;;1.70;0.75;;;16.60;99.90;;;;;;5063142;28;20094;-70
2023/09/21 10:06:08;;;;;;;2.15;0.63;;;16.50;99.90;;;;;;5049713;28;20468;-69
2023/09/21 10:08:38;;;;;;;2.77;0.80;;;16.50;99.90;;;;;;5041371;28;20441;-70
2023/09/21 10:11:10;;;;;;;3.70;0.80;;;16.50;99.90;;;;;;5054045;28;20053;-70
2023/09/21 10:13:47;;;;;;;2.58;0.75;;;16.60;99.90;;;;;;5035347;28;21379;-69
2023/09/21 10:16:13;;;;;;;1.45;0.70;;;16.60;99.90;;;;;;5063542;28;20063;-66
2023/09/21 10:18:41;;;;;;;2.38;0.73;;;16.50;99.90;;;;;;5033877;28;20052;-66
2023/09/21 10:21:35;;;;;;;1.80;0.70;;;16.50;99.90;;;;;;5048969;28;20044;-66
2023/09/21 10:24:13;;;;;;;2.40;0.90;;;16.50;99.90;;;;;;5042294;28;20041;-66
2023/09/21 10:26:44;;;;;;;5.05;0.80;;;16.50;99.90;;;;;;5044992;28;20047;-66
2023/09/21 10:29:12;;;;;;;3.97;0.80;;;16.50;99.90;;;;;;5075850;28;20041;-66
2023/09/21 10:31:45;;;;;;;1.60;0.77;;;16.50;99.90;;;;;;5051781;28;20516;-66
2023/09/21 10:34:12;;;;;;;1.63;0.70;;;16.60;99.90;;;;;;5056212;28;20447;-66
2023/09/21 10:36:46;;;;;;;2.88;0.90;;;16.60;99.90;;;;;;5057133;28;20135;-66
2023/09/21 10:39:12;;;;;;;2.17;0.82;;;16.60;99.90;;;;;;5057761;28;20485;-66
2023/09/21 10:41:45;;;;;;;4.88;0.90;;;16.60;99.90;;;;;;5045062;28;20132;-66
2023/09/21 10:44:13;;;;;;;3.33;0.95;;;16.50;99.90;;;;;;5061783;28;20045;-66
2023/09/21 10:46:41;;;;;;;2.30;0.80;;;16.60;99.90;;;;;;5054637;28;20904;-66
2023/09/21 10:49:16;;;;;;;4.30;0.93;;;16.60;99.90;;;;;;5036943;28;20689;-67
2023/09/21 10:51:43;;;;;;;1.60;0.70;;;16.50;99.90;;;;;;5056515;28;20045;-69
2023/09/21 10:54:12;;;;;;;2.10;0.80;;;16.60;99.90;;;;;;5042164;28;20044;-69
2023/09/21 10:56:38;;;;;;;1.73;0.80;;;16.50;99.90;;;;;;5036547;28;20109;-69
2023/09/21 10:59:07;;;;;;;3.28;1.00;;;16.50;99.90;;;;;;5053865;28;20052;-69
2023/09/21 11:01:32;;;;;;;2.65;1.00;;;16.50;99.90;;;;;;5051473;28;20112;-70
2023/09/21 11:03:59;;;;;;;2.10;0.70;;;16.50;99.90;;;;;;5071918;28;20335;-70
2023/09/21 11:06:26;;;;;;;1.98;0.70;;;16.50;99.90;;;;;;5032639;28;20044;-69
2023/09/21 11:08:55;;;;;;;1.45;0.70;;;16.50;99.90;;;;;;5082050;28;20056;-69
2023/09/21 11:11:21;;;;;;;2.72;0.80;;;16.60;99.90;;;;;;5047036;28;20040;-69
2023/09/21 11:13:54;;;;;;;1.73;0.80;;;16.60;99.90;;;;;;5040372;28;20044;-69
2023/09/21 11:16:23;;;;;;;4.63;1.00;;;16.60;99.90;;;;;;5080336;28;20052;-70
2023/09/21 11:18:51;;;;;;;3.42;0.90;;;16.60;99.90;;;;;;5069817;28;20297;-69
2023/09/21 11:21:17;;;;;;;1.65;0.80;;;16.60;99.90;;;;;;5046636;28;20573;-70
2023/09/21 11:23:43;;;;;;;3.40;0.90;;;16.60;99.90;;;;;;5044610;28;20052;-70
2023/09/21 11:26:14;;;;;;;3.25;1.00;;;16.60;99.90;;;;;;5035861;28;20068;-70
2023/09/21 11:28:41;;;;;;;2.47;1.20;;;16.60;99.90;;;;;;5060156;28;20059;-69
2023/09/21 11:31:08;;;;;;;3.47;1.15;;;16.50;99.90;;;;;;5086811;28;20057;-69
2023/09/21 11:33:37;;;;;;;1.73;0.90;;;16.60;99.90;;;;;;5052490;28;20040;-70
2023/09/21 11:36:04;;;;;;;2.15;1.10;;;16.50;99.90;;;;;;5053654;28;20505;-69
2023/09/21 11:38:33;;;;;;;4.07;1.00;;;16.60;99.90;;;;;;5052805;28;20579;-70
2023/09/21 11:40:59;;;;;;;2.70;0.90;;;16.60;99.90;;;;;;5058344;28;20071;-69
2023/09/21 11:43:26;;;;;;;2.20;1.10;;;16.60;99.90;;;;;;5040077;28;20071;-70
2023/09/21 11:45:52;;;;;;;2.50;1.00;;;16.50;99.90;;;;;;5056533;28;20055;-69
2023/09/21 11:48:19;;;;;;;2.25;1.00;;;16.50;99.90;;;;;;5049397;28;20083;-70
2023/09/21 11:50:46;;;;;;;1.88;1.00;;;16.50;99.90;;;;;;5053355;28;20417;-70
2023/09/21 11:53:12;;;;;;;2.35;0.95;;;16.50;99.90;;;;;;5041178;28;20085;-69
2023/09/21 11:55:38;;;;;;;3.20;1.02;;;16.50;99.90;;;;;;5081657;28;20460;-70
2023/09/21 11:58:08;;;;;;;3.08;1.00;;;16.50;99.90;;;;;;5057114;28;20132;-69
2023/09/21 12:00:44;;;;;;;2.92;1.00;;;16.50;99.90;;;;;;5034044;28;20050;-70
2023/09/21 12:03:18;;;;;;;2.88;1.00;;;16.50;99.90;;;;;;5051024;28;20059;-69
2023/09/21 12:05:44;;;;;;;3.22;1.20;;;16.50;99.90;;;;;;5064344;28;20755;-70
2023/09/21 12:08:13;;;;;;;2.50;1.13;;;16.50;99.90;;;;;;5063315;28;20050;-69
2023/09/21 12:10:40;;;;;;;2.10;1.00;;;16.40;99.90;;;;;;5052836;28;20052;-70
2023/09/21 12:13:06;;;;;;;3.15;1.10;;;16.40;99.90;;;;;;5062484;28;20110;-69
2023/09/21 12:15:33;;;;;;;2.38;1.10;;;16.40;99.90;;;;;;5060720;28;20048;-70
2023/09/21 12:18:01;;;;;;;3.03;1.10;;;16.40;99.90;;;;;;5055078;28;20049;-69
2023/09/21 12:20:27;;;;;;;2.78;1.00;;;16.40;99.90;;;;;;5086845;27;20057;-70
2023/09/21 12:22:53;;;;;;;3.22;1.17;;;16.40;99.90;;;;;;5057932;28;20131;-69
2023/09/21 12:25:20;;;;;;;3.40;0.93;;;16.50;99.90;;;;;;5062615;28;20202;-72
2023/09/21 12:27:47;;;;;;;2.47;1.08;;;16.40;99.90;;;;;;5047211;28;20058;-69
2023/09/21 12:30:14;;;;;;;3.30;0.93;;;16.50;99.90;;;;;;5061975;28;20048;-69
2023/09/21 12:32:41;;;;;;;3.15;0.80;;;16.50;99.90;;;;;;5037493;28;20087;-69
2023/09/21 12:35:08;;;;;;;2.08;0.80;;;16.50;99.90;;;;;;5064699;28;20056;-69
2023/09/21 12:37:36;;;;;;;2.00;0.90;;;16.50;99.90;;;;;;5046439;28;20109;-70
2023/09/21 12:40:07;;;;;;;2.00;0.90;;;16.50;99.90;;;;;;5034539;28;20056;-71
2023/09/21 12:42:32;;;;;;;1.88;0.80;;;16.50;99.90;;;;;;5054763;28;20330;-70
2023/09/21 12:44:58;;;;;;;2.88;1.00;;;16.50;99.90;;;;;;5048435;28;20071;-69
2023/09/21 12:47:25;;;;;;;2.72;0.77;;;16.60;99.90;;;;;;5065951;28;20177;-69
2023/09/21 12:49:51;;;;;;;2.13;0.80;;;16.60;99.90;;;;;;5050118;28;20577;-69
2023/09/21 12:52:16;;;;;;;4.40;0.80;;;16.60;99.90;;;;;;5047067;28;20059;-69
2023/09/21 12:54:42;;;;;;;1.85;0.70;;;16.60;99.90;;;;;;5064085;28;20119;-69